createdAt,value
2023-02-11T00:00:45.574Z,5.07
2023-02-11T00:03:12.884Z,5.45
2023-02-11T00:05:40.175Z,4.55
2023-02-11T00:08:07.494Z,4.18
2023-02-11T00:10:34.709Z,4.30
2023-02-11T00:13:01.950Z,4.47
2023-02-11T00:15:29.274Z,3.70
2023-02-11T00:17:56.506Z,3.72
2023-02-11T00:20:23.720Z,2.78
2023-02-11T00:22:50.930Z,5.20
2023-02-11T00:25:18.132Z,3.63
2023-02-11T00:27:45.344Z,4.28
2023-02-11T00:30:13.494Z,3.15
2023-02-11T00:32:42.696Z,3.85
2023-02-11T00:35:09.900Z,4.70
2023-02-11T00:37:37.240Z,4.03
2023-02-11T00:40:06.849Z,3.42
2023-02-11T00:42:35.761Z,2.70
2023-02-11T00:45:03.806Z,3.33
2023-02-11T00:47:31.050Z,3.50
2023-02-11T00:49:58.352Z,2.78
2023-02-11T00:52:28.277Z,3.75
2023-02-11T00:54:55.521Z,4.90
2023-02-11T00:57:22.905Z,3.70
2023-02-11T00:59:50.823Z,3.60
2023-02-11T01:02:19.269Z,4.45
2023-02-11T01:04:47.695Z,3.47
2023-02-11T01:07:14.985Z,3.95
2023-02-11T01:09:42.241Z,4.55
2023-02-11T01:12:09.516Z,4.13
2023-02-11T01:14:36.790Z,4.05
2023-02-11T01:17:05.921Z,4.20
2023-02-11T01:19:33.397Z,4.57
2023-02-11T01:22:00.638Z,3.58
2023-02-11T01:24:28.300Z,3.90
2023-02-11T01:26:55.957Z,4.72
2023-02-11T01:29:24.722Z,5.28
2023-02-11T01:31:55.099Z,5.68
2023-02-11T01:34:22.419Z,6.22
2023-02-11T01:36:50.527Z,5.18
2023-02-11T01:39:17.785Z,5.07
2023-02-11T01:41:46.936Z,5.70
2023-02-11T01:44:34.624Z,4.78
2023-02-11T01:47:04.849Z,4.70
2023-02-11T01:49:36.572Z,3.38
2023-02-11T01:52:06.853Z,4.43
2023-02-11T01:54:59.324Z,5.18
2023-02-11T01:57:29.212Z,4.90
2023-02-11T02:00:26.296Z,5.22
2023-02-11T02:02:58.921Z,6.03
2023-02-11T02:05:39.200Z,5.28
2023-02-11T02:08:09.526Z,6.50
2023-02-11T02:10:40.355Z,5.50
2023-02-11T02:13:07.699Z,5.00
2023-02-11T02:15:39.438Z,5.13
2023-02-11T02:18:32.483Z,5.03
2023-02-11T02:21:36.864Z,6.65
2023-02-11T02:24:14.223Z,6.03
2023-02-11T02:27:06.650Z,6.32
2023-02-11T02:29:54.737Z,7.05
2023-02-11T02:32:40.436Z,6.40
2023-02-11T02:35:20.014Z,5.57
2023-02-11T02:38:13.296Z,6.40
2023-02-11T02:41:10.108Z,7.78
2023-02-11T02:43:41.180Z,6.78
2023-02-11T02:46:19.349Z,6.07
2023-02-11T02:48:49.532Z,6.45
2023-02-11T02:51:16.757Z,6.10
2023-02-11T02:54:05.002Z,5.45
2023-02-11T02:56:40.867Z,7.43
2023-02-11T02:59:22.237Z,6.60
2023-02-11T03:02:16.780Z,7.85
2023-02-11T03:05:18.630Z,8.18
2023-02-11T03:08:14.372Z,6.28
2023-02-11T03:10:49.807Z,6.72
2023-02-11T03:13:21.780Z,5.53
2023-02-11T03:15:53.883Z,6.75
2023-02-11T03:18:25.299Z,8.88
2023-02-11T03:20:54.481Z,7.57
2023-02-11T03:23:34.984Z,6.78
2023-02-11T03:26:34.607Z,7.00
2023-02-11T03:29:10.020Z,9.80
2023-02-11T03:32:12.373Z,7.05
2023-02-11T03:34:54.830Z,9.95
2023-02-11T03:37:35.399Z,7.05
2023-02-11T03:40:05.340Z,5.45
2023-02-11T03:42:46.186Z,6.22
2023-02-11T03:45:18.020Z,6.57
2023-02-11T03:47:50.138Z,5.97
2023-02-11T03:50:19.156Z,6.47
2023-02-11T03:52:48.312Z,6.35
2023-02-11T03:55:20.995Z,6.78
2023-02-11T03:57:48.856Z,6.45
2023-02-11T04:00:16.456Z,5.70
2023-02-11T04:02:44.410Z,6.93
2023-02-11T04:05:15.787Z,5.70
2023-02-11T04:07:43.130Z,5.43
2023-02-11T04:10:12.116Z,5.10
2023-02-11T04:12:39.368Z,6.05
2023-02-11T04:15:07.220Z,6.28
2023-02-11T04:17:34.484Z,5.80
2023-02-11T04:20:01.874Z,5.10
2023-02-11T04:22:29.636Z,5.30
2023-02-11T04:24:56.878Z,4.88
2023-02-11T04:27:24.062Z,5.00
2023-02-11T04:29:51.348Z,4.72
2023-02-11T04:32:18.753Z,4.20
2023-02-11T04:34:45.992Z,5.60
2023-02-11T04:37:13.339Z,5.45
2023-02-11T04:39:40.549Z,4.82
2023-02-11T04:42:07.760Z,5.03
2023-02-11T04:44:35.102Z,3.67
2023-02-11T04:47:02.519Z,4.63
2023-02-11T04:49:29.986Z,3.85
2023-02-11T04:51:57.285Z,5.05
2023-02-11T04:54:24.719Z,4.28
2023-02-11T04:56:51.899Z,4.40
2023-02-11T04:59:19.165Z,4.50
2023-02-11T05:01:46.372Z,5.25
2023-02-11T05:04:13.716Z,4.90
2023-02-11T05:06:41.024Z,3.72
2023-02-11T05:09:08.450Z,4.35
2023-02-11T05:11:36.864Z,4.15
2023-02-11T05:14:04.116Z,4.57
2023-02-11T05:16:31.562Z,4.55
2023-02-11T05:18:58.937Z,4.45
2023-02-11T05:21:26.194Z,6.45
2023-02-11T05:23:53.375Z,5.07
2023-02-11T05:26:20.787Z,4.35
2023-02-11T05:28:48.322Z,4.25
2023-02-11T05:31:16.931Z,4.18
2023-02-11T05:33:44.214Z,3.78
2023-02-11T05:36:13.595Z,4.13
2023-02-11T05:38:42.547Z,4.03
2023-02-11T05:41:10.960Z,3.63
2023-02-11T05:43:38.368Z,3.80
2023-02-11T05:46:06.121Z,4.85
2023-02-11T05:48:33.905Z,6.88
2023-02-11T05:51:01.239Z,4.47
2023-02-11T05:53:28.458Z,4.28
2023-02-11T05:55:55.664Z,4.05
2023-02-11T05:58:22.921Z,3.42
2023-02-11T06:00:50.142Z,3.38
2023-02-11T06:03:17.442Z,4.97
2023-02-11T06:05:45.553Z,3.63
2023-02-11T06:08:12.838Z,4.68
2023-02-11T06:10:42.537Z,4.65
2023-02-11T06:13:09.757Z,3.97
2023-02-11T06:15:37.059Z,2.85
2023-02-11T06:18:04.628Z,4.72
2023-02-11T06:20:31.923Z,4.05
2023-02-11T06:22:59.209Z,4.55
2023-02-11T06:25:26.441Z,3.45
2023-02-11T06:27:53.661Z,3.35
2023-02-11T06:30:20.888Z,2.38
2023-02-11T06:32:48.335Z,3.10
2023-02-11T06:35:15.796Z,3.03
2023-02-11T06:37:43.489Z,2.72
2023-02-11T06:40:11.999Z,2.92
2023-02-11T06:42:39.688Z,3.75
2023-02-11T06:45:09.660Z,3.60
2023-02-11T06:47:37.925Z,3.20
2023-02-11T06:50:07.951Z,4.05
2023-02-11T06:52:35.211Z,2.78
2023-02-11T06:55:02.743Z,4.20
2023-02-11T06:57:31.391Z,3.78
2023-02-11T06:59:58.624Z,3.17
2023-02-11T07:02:25.973Z,3.08
2023-02-11T07:04:53.160Z,3.17
2023-02-11T07:07:20.346Z,2.85
2023-02-11T07:09:47.563Z,2.53
2023-02-11T07:12:14.922Z,2.97
2023-02-11T07:14:42.734Z,1.73
2023-02-11T07:17:10.027Z,2.97
2023-02-11T07:19:37.313Z,3.42
2023-02-11T07:22:04.510Z,1.65
2023-02-11T07:24:31.716Z,2.25
2023-02-11T07:26:58.912Z,2.72
2023-02-11T07:29:26.100Z,2.88
2023-02-11T07:31:53.288Z,2.47
2023-02-11T07:34:20.634Z,2.33
2023-02-11T07:36:49.148Z,3.22
2023-02-11T07:39:16.575Z,3.17
2023-02-11T07:41:47.842Z,3.20
2023-02-11T07:44:15.750Z,2.08
2023-02-11T07:46:45.290Z,3.42
2023-02-11T07:49:12.887Z,2.35
2023-02-11T07:51:40.198Z,2.83
2023-02-11T07:54:07.482Z,2.28
2023-02-11T07:56:35.058Z,2.40
2023-02-11T07:59:03.590Z,2.35
2023-02-11T08:01:31.374Z,1.77
2023-02-11T08:04:00.554Z,2.20
2023-02-11T08:06:30.976Z,2.65
2023-02-11T08:08:58.876Z,2.03
2023-02-11T08:11:28.871Z,1.70
2023-02-11T08:13:57.300Z,1.10
2023-02-11T08:16:27.884Z,3.08
2023-02-11T08:18:57.884Z,1.58
2023-02-11T08:21:25.915Z,2.03
2023-02-11T08:23:53.508Z,1.88
2023-02-11T08:26:23.587Z,1.50
2023-02-11T08:28:52.654Z,1.27
2023-02-11T08:31:22.688Z,1.60
2023-02-11T08:33:50.586Z,1.80
2023-02-11T08:36:20.997Z,1.20
2023-02-11T08:38:48.363Z,1.40
2023-02-11T08:41:16.840Z,1.00
2023-02-11T08:43:45.617Z,1.33
2023-02-11T08:46:16.072Z,1.02
2023-02-11T08:48:44.008Z,1.95
2023-02-11T08:51:22.040Z,0.90
2023-02-11T08:53:49.478Z,1.65
2023-02-11T08:56:18.337Z,1.10
2023-02-11T08:58:46.224Z,1.05
2023-02-11T09:01:15.655Z,1.10
2023-02-11T09:03:42.954Z,0.90
2023-02-11T09:06:12.274Z,1.10
2023-02-11T09:08:46.319Z,1.13
2023-02-11T09:11:14.253Z,1.00
2023-02-11T09:13:42.996Z,1.00
2023-02-11T09:16:20.505Z,0.93
2023-02-11T09:18:48.683Z,0.90
2023-02-11T09:21:17.553Z,0.80
2023-02-11T09:23:47.720Z,0.70
2023-02-11T09:26:23.122Z,1.58
2023-02-11T09:28:51.427Z,0.90
2023-02-11T09:31:21.501Z,1.00
2023-02-11T09:33:51.365Z,1.15
2023-02-11T09:36:28.803Z,1.38
2023-02-11T09:38:58.624Z,1.05
2023-02-11T09:41:41.080Z,0.75
2023-02-11T09:44:21.301Z,0.80
2023-02-11T09:47:03.438Z,0.90
2023-02-11T09:49:46.911Z,0.75
2023-02-11T09:52:32.852Z,1.00
2023-02-11T09:55:11.776Z,0.80
2023-02-11T09:57:39.082Z,0.90
2023-02-11T10:00:24.310Z,0.73
2023-02-11T10:03:10.368Z,0.60
2023-02-11T10:06:11.548Z,0.82
2023-02-11T10:09:01.848Z,0.70
2023-02-11T10:11:41.447Z,1.08
2023-02-11T10:14:36.188Z,1.00
2023-02-11T10:17:27.716Z,1.52
2023-02-11T10:20:04.105Z,1.17
2023-02-11T10:22:37.872Z,0.57
2023-02-11T10:25:24.406Z,0.70
2023-02-11T10:27:54.710Z,0.70
2023-02-11T10:30:36.010Z,0.60
2023-02-11T10:33:27.632Z,1.00
2023-02-11T10:35:55.104Z,0.80
2023-02-11T10:38:22.384Z,0.60
2023-02-11T10:40:49.976Z,0.60
2023-02-11T10:43:19.442Z,1.33
2023-02-11T10:46:02.626Z,0.73
2023-02-11T10:48:39.810Z,0.60
2023-02-11T10:51:16.612Z,0.90
2023-02-11T10:53:44.985Z,0.60
2023-02-11T10:56:33.721Z,0.60
2023-02-11T10:59:04.873Z,0.60
2023-02-11T11:01:46.340Z,0.60
2023-02-11T11:04:45.015Z,0.60
2023-02-11T11:07:21.766Z,0.60
2023-02-11T11:09:55.650Z,0.60
2023-02-11T11:12:31.636Z,0.65
2023-02-11T11:15:10.780Z,0.50
2023-02-11T11:17:38.308Z,1.08
2023-02-11T11:20:28.199Z,0.70
2023-02-11T11:23:19.844Z,0.68
2023-02-11T11:26:04.145Z,1.02
2023-02-11T11:28:38.999Z,0.68
2023-02-11T11:31:19.190Z,0.60
2023-02-11T11:33:48.178Z,0.70
2023-02-11T11:36:22.953Z,0.82
2023-02-11T11:41:31.079Z,0.88
2023-02-11T11:44:03.144Z,0.68
2023-02-11T11:46:36.701Z,0.60
2023-02-11T11:49:13.742Z,0.77
2023-02-11T11:51:44.178Z,0.70
2023-02-11T11:54:18.444Z,0.60
2023-02-11T11:57:00.727Z,0.80
2023-02-11T11:59:28.545Z,0.77
2023-02-11T12:02:23.615Z,0.70
2023-02-11T12:05:14.891Z,0.50
2023-02-11T12:08:06.444Z,0.75
2023-02-11T12:10:52.888Z,1.25
2023-02-11T12:13:57.718Z,0.75
2023-02-11T12:17:03.523Z,0.77
2023-02-11T12:19:47.280Z,0.93
2023-02-11T12:23:11.490Z,0.57
2023-02-11T12:25:44.700Z,0.57
2023-02-11T12:28:34.865Z,0.75
2023-02-11T12:31:52.398Z,0.70
2023-02-11T12:34:33.208Z,0.73
2023-02-11T12:37:19.081Z,0.60
2023-02-11T12:40:07.455Z,0.70
2023-02-11T12:43:07.070Z,0.80
2023-02-11T12:46:04.157Z,1.20
2023-02-11T12:48:35.894Z,0.93
2023-02-11T12:51:12.187Z,0.80
2023-02-11T12:53:57.892Z,0.63
2023-02-11T12:56:36.176Z,1.10
2023-02-11T12:59:08.057Z,1.00
2023-02-11T13:01:44.004Z,0.80
2023-02-11T13:04:26.944Z,0.90
2023-02-11T13:07:06.474Z,1.00
2023-02-11T13:09:42.155Z,1.20
2023-02-11T13:12:31.754Z,0.95
2023-02-11T13:15:06.526Z,1.17
2023-02-11T13:18:04.550Z,0.90
2023-02-11T13:20:34.465Z,0.70
2023-02-11T13:23:40.556Z,0.70
2023-02-11T13:26:28.578Z,1.05
2023-02-11T13:29:21.779Z,0.93
2023-02-11T13:31:57.142Z,1.10
2023-02-11T13:34:27.582Z,0.90
2023-02-11T13:36:56.903Z,0.60
2023-02-11T13:39:24.658Z,0.65
2023-02-11T13:42:03.746Z,0.75
2023-02-11T13:44:34.819Z,0.63
2023-02-11T13:47:05.474Z,0.60
2023-02-11T13:49:42.262Z,1.10
2023-02-11T13:52:24.467Z,0.90
2023-02-11T13:54:54.670Z,1.10
2023-02-11T13:57:23.514Z,0.95
2023-02-11T13:59:55.731Z,1.00
2023-02-11T14:02:47.558Z,1.00
2023-02-11T14:05:45.523Z,1.20
2023-02-11T14:08:31.255Z,0.85
2023-02-11T14:11:10.934Z,0.90
2023-02-11T14:13:53.585Z,0.77
2023-02-11T14:16:36.363Z,0.93
2023-02-11T14:19:04.513Z,1.02
2023-02-11T14:21:38.191Z,1.20
2023-02-11T14:24:07.114Z,1.60
2023-02-11T14:26:52.883Z,0.85
2023-02-11T14:29:41.765Z,1.10
2023-02-11T14:32:17.945Z,0.77
2023-02-11T14:35:04.389Z,0.73
2023-02-11T14:38:07.104Z,1.30
2023-02-11T14:40:51.689Z,0.70
2023-02-11T14:43:24.374Z,1.02
2023-02-11T14:45:57.625Z,0.80
2023-02-11T14:48:35.251Z,0.75
2023-02-11T14:51:10.677Z,1.80
2023-02-11T14:53:44.382Z,1.35
2023-02-11T14:56:20.364Z,0.80
2023-02-11T14:58:49.749Z,0.75
2023-02-11T15:01:35.774Z,1.10
2023-02-11T15:04:05.672Z,1.00
2023-02-11T15:06:37.282Z,0.80
2023-02-11T15:09:05.812Z,1.33
2023-02-11T15:11:40.086Z,0.90
2023-02-11T15:14:11.172Z,0.90
2023-02-11T15:16:46.628Z,1.52
2023-02-11T15:19:20.250Z,1.20
2023-02-11T15:21:48.026Z,1.00
2023-02-11T15:24:30.591Z,1.00
2023-02-11T15:27:14.708Z,1.38
2023-02-11T15:29:46.225Z,0.90
2023-02-11T15:32:19.372Z,1.17
2023-02-11T15:34:48.675Z,0.90
2023-02-11T15:37:21.647Z,1.35
2023-02-11T15:39:49.639Z,1.42
2023-02-11T15:42:38.061Z,1.13
2023-02-11T15:45:14.493Z,1.02
2023-02-11T15:47:49.285Z,0.82
2023-02-11T15:50:28.218Z,0.95
2023-02-11T15:52:58.382Z,1.08
2023-02-11T15:55:27.054Z,1.10
2023-02-11T15:57:57.462Z,1.00
2023-02-11T16:00:32.579Z,1.38
2023-02-11T16:02:59.980Z,2.60
2023-02-11T16:05:37.270Z,1.20
2023-02-11T16:08:29.383Z,1.25
2023-02-11T16:11:08.903Z,2.13
2023-02-11T16:13:47.525Z,1.75
2023-02-11T16:16:27.613Z,1.33
2023-02-11T16:19:05.266Z,1.58
2023-02-11T16:21:42.464Z,1.40
2023-02-11T16:24:21.427Z,1.00
2023-02-11T16:26:53.386Z,1.23
2023-02-11T16:29:26.143Z,1.38
2023-02-11T16:31:55.208Z,1.85
2023-02-11T16:34:25.021Z,1.85
2023-02-11T16:36:53.231Z,1.40
2023-02-11T16:39:24.409Z,1.70
2023-02-11T16:41:52.505Z,1.73
2023-02-11T16:44:19.976Z,1.13
2023-02-11T16:46:47.736Z,1.00
2023-02-11T16:49:23.931Z,1.02
2023-02-11T16:51:53.450Z,1.20
2023-02-11T16:54:20.812Z,1.00
2023-02-11T16:56:48.396Z,2.13
2023-02-11T16:59:15.778Z,2.22
2023-02-11T17:01:45.099Z,2.33
2023-02-11T17:04:25.654Z,1.40
2023-02-11T17:06:52.993Z,1.92
2023-02-11T17:09:23.555Z,1.65
2023-02-11T17:11:51.483Z,1.58
2023-02-11T17:14:20.181Z,1.55
2023-02-11T17:16:49.375Z,1.60
2023-02-11T17:19:22.198Z,1.42
2023-02-11T17:21:51.970Z,1.88
2023-02-11T17:24:20.462Z,1.52
2023-02-11T17:26:48.539Z,2.15
2023-02-11T17:29:18.937Z,1.83
2023-02-11T17:31:46.614Z,1.80
2023-02-11T17:34:14.227Z,2.03
2023-02-11T17:36:41.497Z,1.73
2023-02-11T17:39:08.861Z,2.05
2023-02-11T17:41:39.705Z,1.67
2023-02-11T17:44:08.584Z,1.67
2023-02-11T17:46:36.216Z,1.25
2023-02-11T17:49:04.486Z,1.33
2023-02-11T17:51:34.411Z,1.67
2023-02-11T17:54:06.288Z,1.73
2023-02-11T17:56:34.922Z,1.75
2023-02-11T17:59:02.975Z,1.63
2023-02-11T18:01:32.129Z,3.00
2023-02-11T18:03:59.603Z,1.92
2023-02-11T18:06:29.119Z,1.60
2023-02-11T18:08:59.799Z,1.33
2023-02-11T18:11:27.998Z,1.65
2023-02-11T18:13:55.277Z,1.85
2023-02-11T18:16:23.986Z,1.65
2023-02-11T18:18:51.667Z,2.92
2023-02-11T18:21:20.773Z,1.55
2023-02-11T18:23:49.272Z,1.83
2023-02-11T18:26:18.532Z,1.08
2023-02-11T18:28:46.409Z,1.20
2023-02-11T18:31:14.409Z,1.00
2023-02-11T18:33:42.457Z,1.63
2023-02-11T18:36:12.488Z,2.30
2023-02-11T18:38:40.614Z,2.60
2023-02-11T18:41:08.297Z,2.80
2023-02-11T18:43:36.479Z,2.00
2023-02-11T18:46:08.796Z,1.98
2023-02-11T18:48:36.341Z,1.55
2023-02-11T18:51:11.923Z,1.27
2023-02-11T18:53:39.673Z,1.25
2023-02-11T18:56:12.262Z,1.75
2023-02-11T18:58:40.276Z,1.10
2023-02-11T19:01:16.267Z,2.38
2023-02-11T19:03:44.869Z,3.60
2023-02-11T19:06:20.926Z,2.92
2023-02-11T19:08:48.323Z,3.08
2023-02-11T19:11:17.962Z,2.88
2023-02-11T19:13:47.781Z,4.15
2023-02-11T19:16:16.946Z,3.05
2023-02-11T19:18:44.863Z,2.42
2023-02-11T19:21:12.766Z,4.25
2023-02-11T19:23:40.105Z,4.00
2023-02-11T19:26:07.638Z,3.97
2023-02-11T19:28:37.252Z,3.55
2023-02-11T19:31:09.088Z,3.53
2023-02-11T19:33:36.864Z,3.28
2023-02-11T19:36:07.679Z,3.33
2023-02-11T19:38:35.572Z,3.08
2023-02-11T19:41:03.209Z,3.22
2023-02-11T19:43:30.764Z,3.88
2023-02-11T19:45:58.613Z,4.18
2023-02-11T19:48:26.204Z,3.28
2023-02-11T19:50:53.509Z,3.25
2023-02-11T19:53:21.268Z,3.20
2023-02-11T19:55:48.986Z,2.88
2023-02-11T19:58:16.970Z,3.47
2023-02-11T20:00:44.265Z,3.88
2023-02-11T20:03:11.724Z,3.90
2023-02-11T20:05:47.042Z,3.70
2023-02-11T20:08:17.118Z,4.50
2023-02-11T20:10:44.646Z,5.57
2023-02-11T20:13:11.961Z,3.33
2023-02-11T20:15:39.806Z,3.85
2023-02-11T20:18:07.531Z,3.35
2023-02-11T20:20:34.795Z,4.00
2023-02-11T20:23:01.990Z,4.30
2023-02-11T20:25:29.406Z,4.65
2023-02-11T20:27:56.876Z,5.10
2023-02-11T20:30:24.359Z,5.30
2023-02-11T20:32:51.958Z,5.47
2023-02-11T20:35:19.260Z,4.85
2023-02-11T20:37:46.468Z,5.18
2023-02-11T20:40:13.925Z,3.70
2023-02-11T20:42:41.210Z,5.13
2023-02-11T20:45:09.095Z,5.63
2023-02-11T20:47:38.485Z,6.60
2023-02-11T20:50:06.648Z,5.93
2023-02-11T20:52:34.507Z,6.38
2023-02-11T20:55:01.881Z,6.70
2023-02-11T20:57:29.233Z,7.43
2023-02-11T20:59:56.577Z,7.15
2023-02-11T21:02:24.962Z,6.82
2023-02-11T21:04:52.479Z,6.00
2023-02-11T21:07:20.102Z,6.22
2023-02-11T21:09:47.453Z,7.78
2023-02-11T21:12:14.764Z,8.35
2023-02-11T21:14:42.106Z,8.00
2023-02-11T21:17:09.452Z,7.03
2023-02-11T21:19:36.612Z,6.28
2023-02-11T21:22:03.995Z,6.35
2023-02-11T21:24:31.237Z,5.20
2023-02-11T21:26:58.771Z,6.60
2023-02-11T21:29:26.259Z,7.10
2023-02-11T21:31:53.722Z,7.20
2023-02-11T21:34:21.320Z,5.82
2023-02-11T21:36:51.261Z,7.03
2023-02-11T21:39:20.343Z,6.95
2023-02-11T21:41:47.671Z,6.47
2023-02-11T21:44:15.153Z,7.18
2023-02-11T21:46:42.688Z,7.95
2023-02-11T21:49:10.707Z,8.30
2023-02-11T21:51:42.818Z,8.75
2023-02-11T21:54:12.401Z,8.38
2023-02-11T21:56:40.689Z,8.93
2023-02-11T21:59:08.099Z,8.98
2023-02-11T22:01:36.123Z,9.27
2023-02-11T22:04:04.170Z,8.73
2023-02-11T22:06:34.250Z,8.80
2023-02-11T22:09:07.245Z,8.35
2023-02-11T22:11:34.734Z,8.07
2023-02-11T22:14:04.534Z,8.43
2023-02-11T22:16:31.967Z,7.28
2023-02-11T22:19:02.347Z,9.13
2023-02-11T22:21:30.139Z,10.10
2023-02-11T22:23:57.587Z,9.13
2023-02-11T22:26:27.230Z,8.52
2023-02-11T22:28:55.422Z,10.27
2023-02-11T22:31:34.758Z,9.82
2023-02-11T22:34:04.215Z,8.60
2023-02-11T22:36:35.887Z,8.98
2023-02-11T22:39:06.234Z,9.18
2023-02-11T22:41:33.963Z,9.23
2023-02-11T22:44:01.335Z,8.82
2023-02-11T22:46:28.622Z,9.13
2023-02-11T22:48:56.044Z,9.32
2023-02-11T22:51:25.552Z,9.23
2023-02-11T22:53:54.866Z,8.48
2023-02-11T22:56:22.958Z,8.95
2023-02-11T22:58:51.096Z,7.30
2023-02-11T23:01:18.536Z,7.78
2023-02-11T23:03:46.381Z,7.82
2023-02-11T23:06:13.932Z,7.10
2023-02-11T23:08:42.994Z,7.18
2023-02-11T23:11:17.017Z,7.15
2023-02-11T23:13:46.249Z,8.68
2023-02-11T23:16:17.497Z,7.60
2023-02-11T23:18:55.545Z,9.50
2023-02-11T23:21:26.408Z,8.18
2023-02-11T23:24:02.589Z,9.50
2023-02-11T23:26:30.599Z,8.18
2023-02-11T23:28:59.181Z,7.80
2023-02-11T23:31:29.734Z,9.23
2023-02-11T23:33:57.115Z,8.13
2023-02-11T23:36:24.547Z,9.20
2023-02-11T23:38:51.949Z,7.93
2023-02-11T23:41:20.422Z,8.82
2023-02-11T23:43:52.848Z,7.18
2023-02-11T23:46:22.205Z,8.68
2023-02-11T23:48:50.494Z,8.10
2023-02-11T23:51:18.573Z,8.65
2023-02-11T23:53:46.353Z,7.43
2023-02-11T23:56:16.516Z,7.40
2023-02-11T23:58:44.857Z,8.10
